sensor_id;sensor_type;location;lat;lon;timestamp;P1;durP1;ratioP1;P2;durP2;ratioP2
20739;SDS011;10530;49.968;19.844;2024-03-02T00:00:23;49.55;;;16.67;;
20739;SDS011;10530;49.968;19.844;2024-03-02T00:05:27;42.87;;;16.33;;
20739;SDS011;10530;49.968;19.844;2024-03-02T00:10:40;48.22;;;17.27;;
20739;SDS011;10530;49.968;19.844;2024-03-02T00:15:56;50.63;;;17.52;;
20739;SDS011;10530;49.968;19.844;2024-03-02T00:21:00;37.97;;;13.70;;
20739;SDS011;10530;49.968;19.844;2024-03-02T00:26:04;43.15;;;15.77;;
20739;SDS011;10530;49.968;19.844;2024-03-02T00:31:12;40.20;;;14.73;;
20739;SDS011;10530;49.968;19.844;2024-03-02T00:36:16;34.60;;;13.93;;
20739;SDS011;10530;49.968;19.844;2024-03-02T00:41:23;41.00;;;16.98;;
20739;SDS011;10530;49.968;19.844;2024-03-02T00:46:33;35.28;;;15.57;;
20739;SDS011;10530;49.968;19.844;2024-03-02T00:51:36;44.15;;;14.80;;
20739;SDS011;10530;49.968;19.844;2024-03-02T00:56:40;42.83;;;14.10;;
20739;SDS011;10530;49.968;19.844;2024-03-02T01:01:43;33.53;;;12.75;;
20739;SDS011;10530;49.968;19.844;2024-03-02T01:06:47;41.00;;;15.60;;
20739;SDS011;10530;49.968;19.844;2024-03-02T01:11:50;33.85;;;13.23;;
20739;SDS011;10530;49.968;19.844;2024-03-02T01:16:53;42.15;;;14.90;;
20739;SDS011;10530;49.968;19.844;2024-03-02T01:21:56;46.70;;;16.80;;
20739;SDS011;10530;49.968;19.844;2024-03-02T01:26:59;46.60;;;17.58;;
20739;SDS011;10530;49.968;19.844;2024-03-02T01:32:02;43.97;;;16.17;;
20739;SDS011;10530;49.968;19.844;2024-03-02T01:37:06;36.75;;;14.52;;
20739;SDS011;10530;49.968;19.844;2024-03-02T01:42:09;41.90;;;15.55;;
20739;SDS011;10530;49.968;19.844;2024-03-02T01:47:12;37.97;;;16.30;;
20739;SDS011;10530;49.968;19.844;2024-03-02T01:52:15;36.65;;;15.30;;
20739;SDS011;10530;49.968;19.844;2024-03-02T01:57:18;39.75;;;14.80;;
20739;SDS011;10530;49.968;19.844;2024-03-02T02:02:21;41.42;;;13.70;;
20739;SDS011;10530;49.968;19.844;2024-03-02T02:07:25;43.45;;;15.40;;
20739;SDS011;10530;49.968;19.844;2024-03-02T02:12:28;39.43;;;14.83;;
20739;SDS011;10530;49.968;19.844;2024-03-02T02:17:31;40.83;;;16.60;;
20739;SDS011;10530;49.968;19.844;2024-03-02T02:22:34;43.58;;;15.35;;
20739;SDS011;10530;49.968;19.844;2024-03-02T02:27:36;37.47;;;13.93;;
20739;SDS011;10530;49.968;19.844;2024-03-02T02:32:39;39.88;;;14.00;;
20739;SDS011;10530;49.968;19.844;2024-03-02T02:37:43;54.93;;;17.07;;
20739;SDS011;10530;49.968;19.844;2024-03-02T02:42:46;48.13;;;17.73;;
20739;SDS011;10530;49.968;19.844;2024-03-02T02:47:49;47.15;;;17.27;;
20739;SDS011;10530;49.968;19.844;2024-03-02T02:52:52;43.83;;;16.08;;
20739;SDS011;10530;49.968;19.844;2024-03-02T02:57:55;41.53;;;16.77;;
20739;SDS011;10530;49.968;19.844;2024-03-02T03:02:59;44.67;;;18.77;;
20739;SDS011;10530;49.968;19.844;2024-03-02T03:08:02;45.17;;;17.15;;
20739;SDS011;10530;49.968;19.844;2024-03-02T03:13:05;38.67;;;14.68;;
20739;SDS011;10530;49.968;19.844;2024-03-02T03:18:10;42.33;;;15.43;;
20739;SDS011;10530;49.968;19.844;2024-03-02T03:23:13;44.03;;;15.88;;
20739;SDS011;10530;49.968;19.844;2024-03-02T03:28:19;46.63;;;16.10;;
20739;SDS011;10530;49.968;19.844;2024-03-02T03:33:22;35.50;;;14.13;;
20739;SDS011;10530;49.968;19.844;2024-03-02T03:38:25;37.65;;;15.02;;
20739;SDS011;10530;49.968;19.844;2024-03-02T03:43:28;45.53;;;16.52;;
20739;SDS011;10530;49.968;19.844;2024-03-02T03:48:31;42.85;;;16.35;;
20739;SDS011;10530;49.968;19.844;2024-03-02T03:53:34;43.10;;;16.90;;
20739;SDS011;10530;49.968;19.844;2024-03-02T03:58:37;40.33;;;15.35;;
20739;SDS011;10530;49.968;19.844;2024-03-02T04:03:40;40.45;;;17.30;;
20739;SDS011;10530;49.968;19.844;2024-03-02T04:08:43;34.88;;;15.13;;
20739;SDS011;10530;49.968;19.844;2024-03-02T04:13:46;37.10;;;14.93;;
20739;SDS011;10530;49.968;19.844;2024-03-02T04:18:49;37.97;;;14.23;;
20739;SDS011;10530;49.968;19.844;2024-03-02T04:23:52;45.05;;;15.88;;
20739;SDS011;10530;49.968;19.844;2024-03-02T04:28:59;43.10;;;15.63;;
20739;SDS011;10530;49.968;19.844;2024-03-02T04:34:02;37.85;;;15.10;;
20739;SDS011;10530;49.968;19.844;2024-03-02T04:39:05;29.40;;;13.23;;
20739;SDS011;10530;49.968;19.844;2024-03-02T04:44:11;44.10;;;16.77;;
20739;SDS011;10530;49.968;19.844;2024-03-02T04:49:14;40.90;;;15.80;;
20739;SDS011;10530;49.968;19.844;2024-03-02T04:54:18;41.05;;;16.27;;
20739;SDS011;10530;49.968;19.844;2024-03-02T04:59:21;33.70;;;13.80;;
20739;SDS011;10530;49.968;19.844;2024-03-02T05:04:24;39.35;;;16.30;;
20739;SDS011;10530;49.968;19.844;2024-03-02T05:09:27;29.03;;;13.07;;
20739;SDS011;10530;49.968;19.844;2024-03-02T05:14:30;41.50;;;14.63;;
20739;SDS011;10530;49.968;19.844;2024-03-02T05:19:33;35.55;;;13.68;;
20739;SDS011;10530;49.968;19.844;2024-03-02T05:24:36;38.92;;;13.57;;
20739;SDS011;10530;49.968;19.844;2024-03-02T05:29:39;35.30;;;12.70;;
20739;SDS011;10530;49.968;19.844;2024-03-02T05:34:42;32.77;;;13.77;;
20739;SDS011;10530;49.968;19.844;2024-03-02T05:39:45;34.70;;;13.55;;
20739;SDS011;10530;49.968;19.844;2024-03-02T05:44:48;38.15;;;12.95;;
20739;SDS011;10530;49.968;19.844;2024-03-02T05:49:51;42.22;;;17.10;;
20739;SDS011;10530;49.968;19.844;2024-03-02T05:54:54;39.60;;;14.43;;
20739;SDS011;10530;49.968;19.844;2024-03-02T05:59:58;37.07;;;14.47;;
20739;SDS011;10530;49.968;19.844;2024-03-02T06:05:01;30.17;;;12.55;;
20739;SDS011;10530;49.968;19.844;2024-03-02T06:10:04;36.17;;;14.35;;
20739;SDS011;10530;49.968;19.844;2024-03-02T06:15:14;43.33;;;13.98;;
20739;SDS011;10530;49.968;19.844;2024-03-02T06:20:17;31.33;;;13.63;;
20739;SDS011;10530;49.968;19.844;2024-03-02T06:25:20;28.77;;;12.77;;
20739;SDS011;10530;49.968;19.844;2024-03-02T06:30:23;44.08;;;15.57;;
20739;SDS011;10530;49.968;19.844;2024-03-02T06:35:26;36.10;;;14.65;;
20739;SDS011;10530;49.968;19.844;2024-03-02T06:40:29;37.90;;;14.23;;
20739;SDS011;10530;49.968;19.844;2024-03-02T06:45:32;42.10;;;16.17;;
20739;SDS011;10530;49.968;19.844;2024-03-02T06:50:36;39.20;;;14.27;;
20739;SDS011;10530;49.968;19.844;2024-03-02T06:55:39;44.38;;;14.55;;
20739;SDS011;10530;49.968;19.844;2024-03-02T07:00:42;44.10;;;15.13;;
20739;SDS011;10530;49.968;19.844;2024-03-02T07:05:50;44.97;;;17.48;;
20739;SDS011;10530;49.968;19.844;2024-03-02T07:10:53;42.40;;;16.98;;
20739;SDS011;10530;49.968;19.844;2024-03-02T07:15:56;45.87;;;19.40;;
20739;SDS011;10530;49.968;19.844;2024-03-02T07:21:05;44.00;;;18.17;;
20739;SDS011;10530;49.968;19.844;2024-03-02T07:26:08;42.58;;;16.65;;
20739;SDS011;10530;49.968;19.844;2024-03-02T07:31:15;47.92;;;17.75;;
20739;SDS011;10530;49.968;19.844;2024-03-02T07:36:18;51.25;;;19.65;;
20739;SDS011;10530;49.968;19.844;2024-03-02T07:41:21;51.30;;;18.63;;
20739;SDS011;10530;49.968;19.844;2024-03-02T07:46:24;58.08;;;21.52;;
20739;SDS011;10530;49.968;19.844;2024-03-02T07:51:28;43.80;;;18.13;;
20739;SDS011;10530;49.968;19.844;2024-03-02T07:56:31;44.78;;;16.40;;
20739;SDS011;10530;49.968;19.844;2024-03-02T08:01:34;41.22;;;15.55;;
20739;SDS011;10530;49.968;19.844;2024-03-02T08:06:37;47.03;;;18.03;;
20739;SDS011;10530;49.968;19.844;2024-03-02T08:11:40;47.92;;;17.35;;
20739;SDS011;10530;49.968;19.844;2024-03-02T08:16:43;49.05;;;18.30;;
20739;SDS011;10530;49.968;19.844;2024-03-02T08:21:46;50.83;;;19.58;;
20739;SDS011;10530;49.968;19.844;2024-03-02T08:26:49;43.40;;;18.58;;
20739;SDS011;10530;49.968;19.844;2024-03-02T08:31:53;42.47;;;16.40;;
20739;SDS011;10530;49.968;19.844;2024-03-02T08:36:56;46.63;;;15.93;;
20739;SDS011;10530;49.968;19.844;2024-03-02T08:41:59;42.95;;;17.52;;
20739;SDS011;10530;49.968;19.844;2024-03-02T08:47:02;49.85;;;18.17;;
20739;SDS011;10530;49.968;19.844;2024-03-02T08:52:06;46.25;;;17.25;;
20739;SDS011;10530;49.968;19.844;2024-03-02T08:57:09;42.07;;;16.60;;
20739;SDS011;10530;49.968;19.844;2024-03-02T09:02:12;47.42;;;17.42;;
20739;SDS011;10530;49.968;19.844;2024-03-02T09:07:15;38.78;;;15.05;;
20739;SDS011;10530;49.968;19.844;2024-03-02T09:12:19;42.20;;;16.67;;
20739;SDS011;10530;49.968;19.844;2024-03-02T09:17:22;43.30;;;14.80;;
20739;SDS011;10530;49.968;19.844;2024-03-02T09:22:25;38.10;;;15.03;;
20739;SDS011;10530;49.968;19.844;2024-03-02T09:27:28;41.60;;;15.63;;
20739;SDS011;10530;49.968;19.844;2024-03-02T09:32:31;42.55;;;15.63;;
20739;SDS011;10530;49.968;19.844;2024-03-02T09:37:35;41.42;;;15.68;;
20739;SDS011;10530;49.968;19.844;2024-03-02T09:42:38;42.70;;;18.05;;
20739;SDS011;10530;49.968;19.844;2024-03-02T09:47:42;48.90;;;20.13;;
20739;SDS011;10530;49.968;19.844;2024-03-02T09:52:47;44.03;;;18.80;;
20739;SDS011;10530;49.968;19.844;2024-03-02T09:57:52;48.15;;;18.63;;
20739;SDS011;10530;49.968;19.844;2024-03-02T10:02:55;39.60;;;14.93;;
20739;SDS011;10530;49.968;19.844;2024-03-02T10:08:01;37.80;;;15.82;;
20739;SDS011;10530;49.968;19.844;2024-03-02T10:13:04;38.23;;;16.10;;
20739;SDS011;10530;49.968;19.844;2024-03-02T10:18:08;42.60;;;16.42;;
20739;SDS011;10530;49.968;19.844;2024-03-02T10:23:14;39.97;;;16.33;;
20739;SDS011;10530;49.968;19.844;2024-03-02T10:28:18;42.88;;;15.70;;
20739;SDS011;10530;49.968;19.844;2024-03-02T10:33:21;40.63;;;15.43;;
20739;SDS011;10530;49.968;19.844;2024-03-02T10:38:24;40.67;;;15.47;;
20739;SDS011;10530;49.968;19.844;2024-03-02T10:43:27;39.28;;;16.50;;
20739;SDS011;10530;49.968;19.844;2024-03-02T10:48:30;36.13;;;16.00;;
20739;SDS011;10530;49.968;19.844;2024-03-02T10:53:34;47.22;;;16.35;;
20739;SDS011;10530;49.968;19.844;2024-03-02T10:58:38;42.35;;;16.52;;
20739;SDS011;10530;49.968;19.844;2024-03-02T11:03:41;45.87;;;17.70;;
20739;SDS011;10530;49.968;19.844;2024-03-02T11:08:45;40.17;;;16.52;;
20739;SDS011;10530;49.968;19.844;2024-03-02T11:13:49;33.97;;;14.38;;
20739;SDS011;10530;49.968;19.844;2024-03-02T11:18:53;36.47;;;15.35;;
20739;SDS011;10530;49.968;19.844;2024-03-02T11:23:56;36.13;;;15.43;;
20739;SDS011;10530;49.968;19.844;2024-03-02T11:28:59;36.90;;;16.03;;
20739;SDS011;10530;49.968;19.844;2024-03-02T11:34:18;37.47;;;15.48;;
20739;SDS011;10530;49.968;19.844;2024-03-02T11:39:31;38.53;;;14.57;;
20739;SDS011;10530;49.968;19.844;2024-03-02T11:44:34;35.05;;;14.60;;
20739;SDS011;10530;49.968;19.844;2024-03-02T11:49:38;38.67;;;14.50;;
20739;SDS011;10530;49.968;19.844;2024-03-02T11:54:42;33.10;;;14.37;;
20739;SDS011;10530;49.968;19.844;2024-03-02T11:59:54;37.00;;;14.85;;
20739;SDS011;10530;49.968;19.844;2024-03-02T12:04:59;37.20;;;14.38;;
20739;SDS011;10530;49.968;19.844;2024-03-02T12:10:02;32.10;;;14.45;;
20739;SDS011;10530;49.968;19.844;2024-03-02T12:15:07;36.30;;;14.13;;
20739;SDS011;10530;49.968;19.844;2024-03-02T12:20:12;38.63;;;15.37;;
20739;SDS011;10530;49.968;19.844;2024-03-02T12:25:15;35.03;;;13.65;;
20739;SDS011;10530;49.968;19.844;2024-03-02T12:30:18;35.20;;;14.45;;
20739;SDS011;10530;49.968;19.844;2024-03-02T12:35:22;37.47;;;14.85;;
20739;SDS011;10530;49.968;19.844;2024-03-02T12:40:27;33.22;;;14.77;;
20739;SDS011;10530;49.968;19.844;2024-03-02T12:45:30;30.13;;;13.70;;
20739;SDS011;10530;49.968;19.844;2024-03-02T12:50:33;31.05;;;13.70;;
20739;SDS011;10530;49.968;19.844;2024-03-02T12:55:37;29.08;;;13.57;;
20739;SDS011;10530;49.968;19.844;2024-03-02T13:00:40;30.90;;;12.27;;
20739;SDS011;10530;49.968;19.844;2024-03-02T13:05:48;30.63;;;13.40;;
20739;SDS011;10530;49.968;19.844;2024-03-02T13:10:51;29.40;;;12.97;;
20739;SDS011;10530;49.968;19.844;2024-03-02T13:15:55;29.45;;;12.95;;
20739;SDS011;10530;49.968;19.844;2024-03-02T13:20:58;29.70;;;12.95;;
20739;SDS011;10530;49.968;19.844;2024-03-02T13:26:01;28.73;;;13.15;;
20739;SDS011;10530;49.968;19.844;2024-03-02T13:31:05;31.55;;;12.60;;
20739;SDS011;10530;49.968;19.844;2024-03-02T13:36:08;38.10;;;13.93;;
20739;SDS011;10530;49.968;19.844;2024-03-02T13:41:11;26.98;;;12.65;;
20739;SDS011;10530;49.968;19.844;2024-03-02T13:46:14;31.27;;;12.50;;
20739;SDS011;10530;49.968;19.844;2024-03-02T13:51:17;26.73;;;12.65;;
20739;SDS011;10530;49.968;19.844;2024-03-02T13:56:20;27.77;;;12.10;;
20739;SDS011;10530;49.968;19.844;2024-03-02T14:01:24;31.37;;;12.87;;
20739;SDS011;10530;49.968;19.844;2024-03-02T14:06:28;28.05;;;13.45;;
20739;SDS011;10530;49.968;19.844;2024-03-02T14:11:31;29.20;;;12.95;;
20739;SDS011;10530;49.968;19.844;2024-03-02T14:16:34;34.00;;;13.35;;
20739;SDS011;10530;49.968;19.844;2024-03-02T14:21:37;30.20;;;13.15;;
20739;SDS011;10530;49.968;19.844;2024-03-02T14:26:41;25.63;;;11.93;;
20739;SDS011;10530;49.968;19.844;2024-03-02T14:31:44;25.48;;;11.85;;
20739;SDS011;10530;49.968;19.844;2024-03-02T14:36:50;32.95;;;13.65;;
20739;SDS011;10530;49.968;19.844;2024-03-02T14:41:53;29.15;;;12.10;;
20739;SDS011;10530;49.968;19.844;2024-03-02T14:46:57;33.10;;;13.80;;
20739;SDS011;10530;49.968;19.844;2024-03-02T14:52:04;32.30;;;12.47;;
20739;SDS011;10530;49.968;19.844;2024-03-02T14:57:07;30.05;;;12.20;;
20739;SDS011;10530;49.968;19.844;2024-03-02T15:02:10;33.45;;;12.95;;
20739;SDS011;10530;49.968;19.844;2024-03-02T15:07:13;32.40;;;13.38;;
20739;SDS011;10530;49.968;19.844;2024-03-02T15:12:18;30.17;;;12.73;;
20739;SDS011;10530;49.968;19.844;2024-03-02T15:17:21;28.00;;;12.63;;
20739;SDS011;10530;49.968;19.844;2024-03-02T15:22:24;31.55;;;12.55;;
20739;SDS011;10530;49.968;19.844;2024-03-02T15:27:27;31.58;;;12.68;;
20739;SDS011;10530;49.968;19.844;2024-03-02T15:32:30;30.20;;;12.20;;
20739;SDS011;10530;49.968;19.844;2024-03-02T15:37:33;31.80;;;12.60;;
20739;SDS011;10530;49.968;19.844;2024-03-02T15:42:37;35.37;;;13.17;;
20739;SDS011;10530;49.968;19.844;2024-03-02T15:47:40;36.35;;;13.77;;
20739;SDS011;10530;49.968;19.844;2024-03-02T15:52:43;32.08;;;13.70;;
20739;SDS011;10530;49.968;19.844;2024-03-02T15:57:47;37.40;;;14.45;;
20739;SDS011;10530;49.968;19.844;2024-03-02T16:02:51;35.42;;;14.38;;
20739;SDS011;10530;49.968;19.844;2024-03-02T16:07:53;38.50;;;14.23;;
20739;SDS011;10530;49.968;19.844;2024-03-02T16:12:57;40.30;;;15.18;;
20739;SDS011;10530;49.968;19.844;2024-03-02T16:18:02;49.47;;;16.33;;
20739;SDS011;10530;49.968;19.844;2024-03-02T16:23:05;44.05;;;15.80;;
20739;SDS011;10530;49.968;19.844;2024-03-02T16:28:08;37.38;;;15.32;;
20739;SDS011;10530;49.968;19.844;2024-03-02T16:33:11;44.40;;;16.63;;
20739;SDS011;10530;49.968;19.844;2024-03-02T16:38:14;44.08;;;16.52;;
20739;SDS011;10530;49.968;19.844;2024-03-02T16:43:17;41.55;;;17.23;;
20739;SDS011;10530;49.968;19.844;2024-03-02T16:48:21;46.88;;;18.38;;
20739;SDS011;10530;49.968;19.844;2024-03-02T16:53:24;46.53;;;16.25;;
20739;SDS011;10530;49.968;19.844;2024-03-02T16:58:27;42.07;;;18.00;;
20739;SDS011;10530;49.968;19.844;2024-03-02T17:03:30;44.55;;;18.23;;
20739;SDS011;10530;49.968;19.844;2024-03-02T17:08:33;49.78;;;18.13;;
20739;SDS011;10530;49.968;19.844;2024-03-02T17:13:36;54.58;;;19.30;;
20739;SDS011;10530;49.968;19.844;2024-03-02T17:18:39;45.42;;;17.95;;
20739;SDS011;10530;49.968;19.844;2024-03-02T17:23:43;45.77;;;16.93;;
20739;SDS011;10530;49.968;19.844;2024-03-02T17:28:46;54.90;;;20.80;;
20739;SDS011;10530;49.968;19.844;2024-03-02T17:33:49;53.53;;;20.50;;
20739;SDS011;10530;49.968;19.844;2024-03-02T17:38:52;50.17;;;19.95;;
20739;SDS011;10530;49.968;19.844;2024-03-02T17:43:55;50.55;;;20.30;;
20739;SDS011;10530;49.968;19.844;2024-03-02T17:48:59;49.90;;;19.43;;
20739;SDS011;10530;49.968;19.844;2024-03-02T17:54:02;48.88;;;19.48;;
20739;SDS011;10530;49.968;19.844;2024-03-02T17:59:06;43.10;;;17.17;;
20739;SDS011;10530;49.968;19.844;2024-03-02T18:04:09;52.17;;;19.10;;
20739;SDS011;10530;49.968;19.844;2024-03-02T18:09:12;48.67;;;17.77;;
20739;SDS011;10530;49.968;19.844;2024-03-02T18:14:15;41.10;;;18.23;;
20739;SDS011;10530;49.968;19.844;2024-03-02T18:19:18;47.58;;;18.60;;
20739;SDS011;10530;49.968;19.844;2024-03-02T18:24:21;70.90;;;25.92;;
20739;SDS011;10530;49.968;19.844;2024-03-02T18:29:27;70.85;;;25.52;;
20739;SDS011;10530;49.968;19.844;2024-03-02T18:34:30;76.35;;;27.85;;
20739;SDS011;10530;49.968;19.844;2024-03-02T18:39:37;86.87;;;29.47;;
20739;SDS011;10530;49.968;19.844;2024-03-02T18:44:41;74.28;;;27.38;;
20739;SDS011;10530;49.968;19.844;2024-03-02T18:49:44;76.75;;;28.38;;
20739;SDS011;10530;49.968;19.844;2024-03-02T18:54:47;68.30;;;25.70;;
20739;SDS011;10530;49.968;19.844;2024-03-02T18:59:50;65.30;;;24.02;;
20739;SDS011;10530;49.968;19.844;2024-03-02T19:04:54;63.07;;;23.40;;
20739;SDS011;10530;49.968;19.844;2024-03-02T19:09:57;53.22;;;22.27;;
20739;SDS011;10530;49.968;19.844;2024-03-02T19:15:00;60.80;;;23.33;;
20739;SDS011;10530;49.968;19.844;2024-03-02T19:20:03;55.78;;;21.80;;
20739;SDS011;10530;49.968;19.844;2024-03-02T19:25:09;72.57;;;27.25;;
20739;SDS011;10530;49.968;19.844;2024-03-02T19:30:13;73.13;;;28.90;;
20739;SDS011;10530;49.968;19.844;2024-03-02T19:35:16;80.03;;;29.50;;
20739;SDS011;10530;49.968;19.844;2024-03-02T19:40:19;74.22;;;28.35;;
20739;SDS011;10530;49.968;19.844;2024-03-02T19:45:23;75.93;;;27.42;;
20739;SDS011;10530;49.968;19.844;2024-03-02T19:50:26;60.20;;;23.70;;
20739;SDS011;10530;49.968;19.844;2024-03-02T19:55:29;56.47;;;21.83;;
20739;SDS011;10530;49.968;19.844;2024-03-02T20:00:32;54.58;;;22.85;;
20739;SDS011;10530;49.968;19.844;2024-03-02T20:05:35;46.78;;;19.30;;
20739;SDS011;10530;49.968;19.844;2024-03-02T20:10:38;43.30;;;16.55;;
20739;SDS011;10530;49.968;19.844;2024-03-02T20:15:45;45.50;;;17.48;;
20739;SDS011;10530;49.968;19.844;2024-03-02T20:20:48;43.93;;;17.83;;
20739;SDS011;10530;49.968;19.844;2024-03-02T20:25:51;52.47;;;19.30;;
20739;SDS011;10530;49.968;19.844;2024-03-02T20:30:56;44.95;;;17.63;;
20739;SDS011;10530;49.968;19.844;2024-03-02T20:36:00;47.10;;;18.40;;
20739;SDS011;10530;49.968;19.844;2024-03-02T20:41:05;59.50;;;22.02;;
20739;SDS011;10530;49.968;19.844;2024-03-02T20:46:08;61.43;;;23.90;;
20739;SDS011;10530;49.968;19.844;2024-03-02T20:51:11;59.25;;;22.67;;
20739;SDS011;10530;49.968;19.844;2024-03-02T20:56:14;57.05;;;22.38;;
20739;SDS011;10530;49.968;19.844;2024-03-02T21:01:17;55.20;;;21.00;;
20739;SDS011;10530;49.968;19.844;2024-03-02T21:06:20;55.50;;;20.85;;
20739;SDS011;10530;49.968;19.844;2024-03-02T21:11:24;42.70;;;17.90;;
20739;SDS011;10530;49.968;19.844;2024-03-02T21:16:27;43.60;;;17.60;;
20739;SDS011;10530;49.968;19.844;2024-03-02T21:21:30;43.67;;;17.55;;
20739;SDS011;10530;49.968;19.844;2024-03-02T21:26:40;37.65;;;17.95;;
20739;SDS011;10530;49.968;19.844;2024-03-02T21:31:44;44.90;;;18.65;;
20739;SDS011;10530;49.968;19.844;2024-03-02T21:36:47;48.23;;;19.20;;
20739;SDS011;10530;49.968;19.844;2024-03-02T21:41:51;42.13;;;17.95;;
20739;SDS011;10530;49.968;19.844;2024-03-02T21:46:54;44.72;;;17.73;;
20739;SDS011;10530;49.968;19.844;2024-03-02T21:51:57;42.80;;;17.70;;
20739;SDS011;10530;49.968;19.844;2024-03-02T21:57:02;47.75;;;20.50;;
20739;SDS011;10530;49.968;19.844;2024-03-02T22:02:08;48.80;;;21.17;;
20739;SDS011;10530;49.968;19.844;2024-03-02T22:07:11;42.13;;;19.88;;
20739;SDS011;10530;49.968;19.844;2024-03-02T22:12:14;55.15;;;22.92;;
20739;SDS011;10530;49.968;19.844;2024-03-02T22:17:17;53.67;;;21.48;;
20739;SDS011;10530;49.968;19.844;2024-03-02T22:22:20;59.30;;;21.33;;
20739;SDS011;10530;49.968;19.844;2024-03-02T22:27:23;56.20;;;20.60;;
20739;SDS011;10530;49.968;19.844;2024-03-02T22:32:26;43.78;;;18.60;;
20739;SDS011;10530;49.968;19.844;2024-03-02T22:37:29;54.20;;;21.33;;
20739;SDS011;10530;49.968;19.844;2024-03-02T22:42:33;50.90;;;19.65;;
20739;SDS011;10530;49.968;19.844;2024-03-02T22:47:36;55.92;;;21.88;;
20739;SDS011;10530;49.968;19.844;2024-03-02T22:52:39;54.63;;;22.93;;
20739;SDS011;10530;49.968;19.844;2024-03-02T22:57:42;59.10;;;23.98;;
20739;SDS011;10530;49.968;19.844;2024-03-02T23:02:45;56.15;;;24.02;;
20739;SDS011;10530;49.968;19.844;2024-03-02T23:07:49;63.70;;;25.55;;
20739;SDS011;10530;49.968;19.844;2024-03-02T23:12:52;56.10;;;23.00;;
20739;SDS011;10530;49.968;19.844;2024-03-02T23:17:56;66.00;;;24.40;;
20739;SDS011;10530;49.968;19.844;2024-03-02T23:22:59;61.08;;;24.90;;
20739;SDS011;10530;49.968;19.844;2024-03-02T23:28:06;69.85;;;26.70;;
20739;SDS011;10530;49.968;19.844;2024-03-02T23:33:09;62.45;;;23.70;;
20739;SDS011;10530;49.968;19.844;2024-03-02T23:38:14;62.22;;;25.17;;
20739;SDS011;10530;49.968;19.844;2024-03-02T23:43:17;69.73;;;26.93;;
20739;SDS011;10530;49.968;19.844;2024-03-02T23:48:20;78.18;;;27.85;;
20739;SDS011;10530;49.968;19.844;2024-03-02T23:53:22;76.20;;;27.50;;
20739;SDS011;10530;49.968;19.844;2024-03-02T23:58:26;70.30;;;27.10;;
